createdAt,value
2022-12-18T00:01:50.780Z,102104.25
2022-12-18T00:04:24.410Z,102112.25
2022-12-18T00:06:51.793Z,102118.19
2022-12-18T00:09:21.411Z,102116.28
2022-12-18T00:11:56.071Z,102120.53
2022-12-18T00:14:23.376Z,102123.09
2022-12-18T00:16:52.781Z,102121.47
2022-12-18T00:19:20.008Z,102121.66
2022-12-18T00:21:49.308Z,102122.78
2022-12-18T00:24:16.498Z,102131.56
2022-12-18T00:26:46.372Z,102134.97
2022-12-18T00:29:15.262Z,102130.50
2022-12-18T00:31:43.467Z,102145.63
2022-12-18T00:34:14.155Z,102139.84
2022-12-18T00:36:42.247Z,102153.03
2022-12-18T00:39:11.044Z,102143.53
2022-12-18T00:41:56.246Z,102165.41
2022-12-18T00:44:24.932Z,102169.94
2022-12-18T00:46:51.876Z,102173.44
2022-12-18T00:49:20.561Z,102175.09
2022-12-18T00:51:48.198Z,102184.56
2022-12-18T00:54:18.514Z,102189.81
2022-12-18T00:56:51.237Z,102177.78
2022-12-18T00:59:20.883Z,102187.25
2022-12-18T01:01:49.354Z,102194.16
2022-12-18T01:04:16.730Z,102196.72
2022-12-18T01:06:43.777Z,102202.84
2022-12-18T01:09:11.939Z,102203.69
2022-12-18T01:11:40.826Z,102202.88
2022-12-18T01:14:07.967Z,102201.22
2022-12-18T01:16:35.211Z,102202.13
2022-12-18T01:19:03.796Z,102214.41
2022-12-18T01:21:32.382Z,102214.41
2022-12-18T01:24:05.849Z,102212.72
2022-12-18T01:26:35.066Z,102212.72
2022-12-18T01:29:04.748Z,102221.44
2022-12-18T01:31:33.349Z,102222.34
2022-12-18T01:34:03.406Z,102224.97
2022-12-18T01:36:32.815Z,102213.13
2022-12-18T01:39:09.485Z,102228.78
2022-12-18T01:41:57.606Z,102235.59
2022-12-18T01:44:54.266Z,102235.63
2022-12-18T01:47:26.958Z,102239.44
2022-12-18T01:49:59.722Z,102237.00
2022-12-18T01:52:29.238Z,102243.13
2022-12-18T01:54:57.242Z,102242.38
2022-12-18T01:57:28.077Z,102243.41
2022-12-18T02:00:02.527Z,102248.81
2022-12-18T02:02:30.488Z,102258.69
2022-12-18T02:05:05.349Z,102250.97
2022-12-18T02:07:43.699Z,102255.19
2022-12-18T02:10:18.524Z,102257.69
2022-12-18T02:12:57.495Z,102254.28
2022-12-18T02:15:33.188Z,102252.66
2022-12-18T02:18:06.588Z,102256.38
2022-12-18T02:20:46.736Z,102247.97
2022-12-18T02:23:25.436Z,102284.38
2022-12-18T02:26:06.002Z,102280.06
2022-12-18T02:28:38.973Z,102291.34
2022-12-18T02:31:13.378Z,102282.84
2022-12-18T02:33:51.365Z,102292.28
2022-12-18T02:36:21.017Z,102283.50
2022-12-18T02:38:48.855Z,102291.50
2022-12-18T02:41:18.904Z,102291.59
2022-12-18T02:43:55.961Z,102301.06
2022-12-18T02:46:35.127Z,102304.63
2022-12-18T02:49:13.801Z,102300.56
2022-12-18T02:51:51.676Z,102304.88
2022-12-18T02:54:33.366Z,102298.09
2022-12-18T02:57:11.528Z,102293.56
2022-12-18T02:59:43.099Z,102303.97
2022-12-18T03:02:20.670Z,102303.09
2022-12-18T03:04:55.652Z,102292.78
2022-12-18T03:07:39.023Z,102312.75
2022-12-18T03:10:14.662Z,102311.94
2022-12-18T03:12:48.658Z,102316.25
2022-12-18T03:15:21.981Z,102318.88
2022-12-18T03:17:53.615Z,102320.78
2022-12-18T03:20:26.261Z,102318.25
2022-12-18T03:23:00.840Z,102327.91
2022-12-18T03:25:29.111Z,102337.59
2022-12-18T03:28:03.211Z,102346.25
2022-12-18T03:30:34.432Z,102340.88
2022-12-18T03:33:09.996Z,102335.66
2022-12-18T03:35:42.750Z,102350.38
2022-12-18T03:38:12.169Z,102352.16
2022-12-18T03:40:49.428Z,102353.03
2022-12-18T03:43:24.952Z,102354.75
2022-12-18T03:45:57.948Z,102362.56
2022-12-18T03:48:31.236Z,102347.94
2022-12-18T03:51:06.097Z,102344.44
2022-12-18T03:53:39.948Z,102348.53
2022-12-18T03:56:09.562Z,102340.88
2022-12-18T03:58:43.476Z,102347.81
2022-12-18T04:01:15.049Z,102352.09
2022-12-18T04:03:44.989Z,102352.03
2022-12-18T04:06:15.437Z,102358.94
2022-12-18T04:08:48.344Z,102357.06
2022-12-18T04:11:21.603Z,102368.47
2022-12-18T04:13:59.048Z,102369.41
2022-12-18T04:16:26.440Z,102375.44
2022-12-18T04:18:54.882Z,102384.84
2022-12-18T04:21:22.388Z,102390.97
2022-12-18T04:23:49.699Z,102391.22
2022-12-18T04:26:18.592Z,102400.94
2022-12-18T04:28:52.249Z,102398.56
2022-12-18T04:31:21.957Z,102393.34
2022-12-18T04:33:52.155Z,102396.59
2022-12-18T04:36:22.079Z,102394.66
2022-12-18T04:38:49.288Z,102395.31
2022-12-18T04:41:17.716Z,102404.81
2022-12-18T04:43:46.741Z,102417.84
2022-12-18T04:46:13.929Z,102404.88
2022-12-18T04:48:42.612Z,102414.53
2022-12-18T04:51:13.880Z,102412.69
2022-12-18T04:53:41.487Z,102421.25
2022-12-18T04:56:10.724Z,102416.88
2022-12-18T04:58:40.423Z,102418.56
2022-12-18T05:01:09.723Z,102429.84
2022-12-18T05:03:39.646Z,102423.59
2022-12-18T05:06:10.411Z,102438.19
2022-12-18T05:08:45.985Z,102446.91
2022-12-18T05:11:16.670Z,102455.53
2022-12-18T05:13:46.553Z,102452.03
2022-12-18T05:16:14.101Z,102461.56
2022-12-18T05:18:41.455Z,102467.53
2022-12-18T05:21:12.774Z,102464.94
2022-12-18T05:23:43.437Z,102477.09
2022-12-18T05:26:20.444Z,102477.84
2022-12-18T05:28:47.970Z,102470.16
2022-12-18T05:31:16.889Z,102482.19
2022-12-18T05:33:45.641Z,102483.03
2022-12-18T05:36:14.738Z,102494.44
2022-12-18T05:38:44.910Z,102499.69
2022-12-18T05:41:14.872Z,102509.31
2022-12-18T05:43:48.073Z,102507.59
2022-12-18T05:46:18.514Z,102516.34
2022-12-18T05:48:49.226Z,102523.25
2022-12-18T05:51:26.609Z,102529.25
2022-12-18T05:53:54.325Z,102533.81
2022-12-18T05:56:23.415Z,102539.75
2022-12-18T05:58:53.801Z,102511.19
2022-12-18T06:01:24.218Z,102535.25
2022-12-18T06:03:51.684Z,102530.03
2022-12-18T06:06:20.515Z,102526.50
2022-12-18T06:08:50.286Z,102541.47
2022-12-18T06:11:21.474Z,102533.56
2022-12-18T06:13:58.261Z,102529.06
2022-12-18T06:16:27.088Z,102525.69
2022-12-18T06:18:54.432Z,102536.19
2022-12-18T06:21:21.322Z,102525.94
2022-12-18T06:23:49.868Z,102546.94
2022-12-18T06:26:16.975Z,102553.09
2022-12-18T06:28:44.215Z,102548.91
2022-12-18T06:31:11.348Z,102548.81
2022-12-18T06:33:39.713Z,102561.06
2022-12-18T06:36:08.900Z,102564.50
2022-12-18T06:38:38.121Z,102565.38
2022-12-18T06:41:08.840Z,102567.88
2022-12-18T06:43:36.345Z,102574.63
2022-12-18T06:46:04.766Z,102572.66
2022-12-18T06:48:33.138Z,102570.84
2022-12-18T06:51:02.294Z,102575.94
2022-12-18T06:53:30.483Z,102582.13
2022-12-18T06:56:05.181Z,102584.81
2022-12-18T06:58:37.822Z,102587.31
2022-12-18T07:01:07.895Z,102589.03
2022-12-18T07:03:38.945Z,102593.94
2022-12-18T07:06:13.981Z,102592.13
2022-12-18T07:08:46.196Z,102591.13
2022-12-18T07:11:16.702Z,102598.81
2022-12-18T07:13:46.226Z,102601.41
2022-12-18T07:16:24.407Z,102590.84
2022-12-18T07:18:56.494Z,102594.31
2022-12-18T07:21:25.147Z,102584.78
2022-12-18T07:23:52.573Z,102596.00
2022-12-18T07:26:22.053Z,102600.38
2022-12-18T07:29:05.260Z,102601.31
2022-12-18T07:31:36.596Z,102601.25
2022-12-18T07:34:04.061Z,102603.78
2022-12-18T07:36:33.068Z,102621.88
2022-12-18T07:39:00.023Z,102623.59
2022-12-18T07:41:27.272Z,102629.97
2022-12-18T07:43:56.284Z,102650.97
2022-12-18T07:46:27.949Z,102644.69
2022-12-18T07:48:54.821Z,102655.88
2022-12-18T07:51:26.488Z,102654.69
2022-12-18T07:53:56.508Z,102657.59
2022-12-18T07:56:42.981Z,102668.16
2022-12-18T07:59:12.930Z,102670.56
2022-12-18T08:01:41.660Z,102684.31
2022-12-18T08:04:10.058Z,102678.00
2022-12-18T08:06:37.263Z,102684.59
2022-12-18T08:09:04.221Z,102665.41
2022-12-18T08:11:31.488Z,102693.31
2022-12-18T08:14:01.522Z,102684.50
2022-12-18T08:16:28.761Z,102695.59
2022-12-18T08:18:57.610Z,102701.88
2022-12-18T08:21:26.195Z,102690.63
2022-12-18T08:23:57.008Z,102701.69
2022-12-18T08:26:25.910Z,102698.53
2022-12-18T08:28:57.580Z,102703.66
2022-12-18T08:31:34.438Z,102706.16
2022-12-18T08:34:03.171Z,102707.91
2022-12-18T08:36:33.388Z,102720.00
2022-12-18T08:39:00.698Z,102711.06
2022-12-18T08:41:30.680Z,102714.75
2022-12-18T08:44:16.895Z,102709.38
2022-12-18T08:46:45.631Z,102715.38
2022-12-18T08:49:14.457Z,102711.78
2022-12-18T08:51:41.386Z,102710.00
2022-12-18T08:54:10.296Z,102715.97
2022-12-18T08:56:44.204Z,102713.13
2022-12-18T08:59:17.294Z,102711.28
2022-12-18T09:01:47.986Z,102723.63
2022-12-18T09:04:16.456Z,102731.44
2022-12-18T09:06:49.311Z,102711.44
2022-12-18T09:09:16.768Z,102719.72
2022-12-18T09:11:45.331Z,102726.66
2022-12-18T09:14:12.781Z,102721.28
2022-12-18T09:16:39.729Z,102725.28
2022-12-18T09:19:07.016Z,102722.88
2022-12-18T09:21:37.156Z,102725.59
2022-12-18T09:24:08.877Z,102730.88
2022-12-18T09:26:36.724Z,102729.16
2022-12-18T09:29:04.058Z,102719.81
2022-12-18T09:31:34.240Z,102724.06
2022-12-18T09:34:02.200Z,102726.56
2022-12-18T09:36:29.236Z,102728.50
2022-12-18T09:38:57.919Z,102734.38
2022-12-18T09:41:40.188Z,102716.13
2022-12-18T09:44:20.994Z,102721.97
2022-12-18T09:47:00.689Z,102714.72
2022-12-18T09:49:35.512Z,102722.63
2022-12-18T09:52:12.421Z,102735.38
2022-12-18T09:54:47.335Z,102735.78
2022-12-18T09:57:22.723Z,102731.81
2022-12-18T09:59:55.982Z,102732.75
2022-12-18T10:02:26.050Z,102725.13
2022-12-18T10:05:06.458Z,102735.56
2022-12-18T10:07:55.266Z,102730.19
2022-12-18T10:10:39.020Z,102734.25
2022-12-18T10:13:16.564Z,102730.69
2022-12-18T10:15:59.453Z,102715.38
2022-12-18T10:18:42.048Z,102728.28
2022-12-18T10:21:18.720Z,102723.53
2022-12-18T10:23:55.377Z,102724.28
2022-12-18T10:26:25.206Z,102733.09
2022-12-18T10:28:53.131Z,102723.16
2022-12-18T10:31:24.736Z,102725.03
2022-12-18T10:33:57.105Z,102736.31
2022-12-18T10:36:25.512Z,102731.72
2022-12-18T10:38:52.757Z,102737.13
2022-12-18T10:41:29.565Z,102737.84
2022-12-18T10:44:18.378Z,102701.19
2022-12-18T10:46:47.770Z,102736.00
2022-12-18T10:49:22.507Z,102727.66
2022-12-18T10:52:04.589Z,102726.31
2022-12-18T10:54:33.616Z,102737.50
2022-12-18T10:57:35.206Z,102725.16
2022-12-18T11:00:22.340Z,102724.56
2022-12-18T11:02:52.512Z,102730.38
2022-12-18T11:05:28.636Z,102736.25
2022-12-18T11:07:59.541Z,102733.28
2022-12-18T11:10:31.675Z,102727.00
2022-12-18T11:13:13.662Z,102732.09
2022-12-18T11:15:42.568Z,102728.69
2022-12-18T11:18:19.990Z,102722.03
2022-12-18T11:21:01.397Z,102710.09
2022-12-18T11:23:29.039Z,102728.50
2022-12-18T11:25:59.139Z,102723.34
2022-12-18T11:28:35.910Z,102721.91
2022-12-18T11:31:23.055Z,102721.13
2022-12-18T11:36:49.580Z,102729.25
2022-12-18T11:39:24.983Z,102719.56
2022-12-18T11:42:12.775Z,102719.78
2022-12-18T11:44:47.684Z,102730.81
2022-12-18T11:47:26.755Z,102729.09
2022-12-18T11:49:58.896Z,102729.09
2022-12-18T11:52:29.675Z,102721.88
2022-12-18T11:55:02.465Z,102723.72
2022-12-18T11:57:42.334Z,102728.09
2022-12-18T12:00:18.629Z,102730.41
2022-12-18T12:03:19.953Z,102731.94
2022-12-18T12:06:04.439Z,102729.19
2022-12-18T12:09:04.920Z,102726.94
2022-12-18T12:11:57.036Z,102720.47
2022-12-18T12:14:37.896Z,102722.91
2022-12-18T12:17:17.838Z,102728.50
2022-12-18T12:19:53.266Z,102726.75
2022-12-18T12:22:31.055Z,102735.22
2022-12-18T12:25:15.620Z,102717.25
2022-12-18T12:27:56.218Z,102732.84
2022-12-18T12:30:32.124Z,102698.75
2022-12-18T12:33:24.208Z,102721.56
2022-12-18T12:36:00.186Z,102723.50
2022-12-18T12:38:38.165Z,102726.56
2022-12-18T12:41:30.739Z,102715.66
2022-12-18T12:44:01.252Z,102726.38
2022-12-18T12:46:30.616Z,102735.56
2022-12-18T12:49:05.328Z,102733.78
2022-12-18T12:51:35.605Z,102733.84
2022-12-18T12:54:07.200Z,102726.53
2022-12-18T12:56:46.727Z,102734.28
2022-12-18T12:59:26.885Z,102734.44
2022-12-18T13:01:59.278Z,102731.88
2022-12-18T13:04:52.681Z,102705.34
2022-12-18T13:07:27.967Z,102730.00
2022-12-18T13:10:28.709Z,102720.47
2022-12-18T13:12:57.371Z,102748.13
2022-12-18T13:15:39.755Z,102744.88
2022-12-18T13:18:20.979Z,102733.59
2022-12-18T13:20:55.168Z,102738.47
2022-12-18T13:23:43.711Z,102752.50
2022-12-18T13:26:33.971Z,102746.53
2022-12-18T13:29:05.049Z,102748.09
2022-12-18T13:32:08.823Z,102752.41
2022-12-18T13:34:37.388Z,102755.34
2022-12-18T13:37:44.112Z,102749.69
2022-12-18T13:40:56.478Z,102757.56
2022-12-18T13:43:41.356Z,102755.88
2022-12-18T13:46:24.056Z,102757.72
2022-12-18T13:48:56.076Z,102756.75
2022-12-18T13:51:23.942Z,102752.78
2022-12-18T13:53:56.225Z,102753.97
2022-12-18T13:56:28.579Z,102756.38
2022-12-18T13:59:23.067Z,102754.56
2022-12-18T14:01:56.290Z,102760.53
2022-12-18T14:04:30.688Z,102770.84
2022-12-18T14:07:03.859Z,102767.41
2022-12-18T14:09:37.231Z,102769.59
2022-12-18T14:12:25.785Z,102779.78
2022-12-18T14:14:55.146Z,102783.63
2022-12-18T14:17:22.176Z,102785.03
2022-12-18T14:19:51.695Z,102780.16
2022-12-18T14:22:21.001Z,102795.38
2022-12-18T14:25:09.591Z,102798.38
2022-12-18T14:27:39.032Z,102794.22
2022-12-18T14:30:24.952Z,102813.22
2022-12-18T14:33:01.164Z,102816.56
2022-12-18T14:35:28.556Z,102807.19
2022-12-18T14:38:20.533Z,102825.38
2022-12-18T14:40:58.938Z,102826.19
2022-12-18T14:43:27.108Z,102827.03
2022-12-18T14:46:00.808Z,102836.63
2022-12-18T14:48:37.442Z,102840.22
2022-12-18T14:51:07.451Z,102849.03
2022-12-18T14:53:40.509Z,102853.53
2022-12-18T14:56:19.748Z,102851.75
2022-12-18T14:58:49.701Z,102855.09
2022-12-18T15:01:28.546Z,102848.13
2022-12-18T15:03:57.313Z,102841.25
2022-12-18T15:06:33.630Z,102849.00
2022-12-18T15:09:22.809Z,102836.94
2022-12-18T15:11:57.601Z,102863.88
2022-12-18T15:14:35.792Z,102850.69
2022-12-18T15:17:06.971Z,102861.91
2022-12-18T15:19:39.535Z,102863.63
2022-12-18T15:22:21.426Z,102864.63
2022-12-18T15:24:52.579Z,102860.19
2022-12-18T15:27:25.508Z,102833.38
2022-12-18T15:30:19.491Z,102870.69
2022-12-18T15:32:49.873Z,102874.34
2022-12-18T15:35:20.376Z,102874.53
2022-12-18T15:37:47.933Z,102876.53
2022-12-18T15:40:16.182Z,102883.66
2022-12-18T15:43:05.627Z,102882.09
2022-12-18T15:45:37.095Z,102888.47
2022-12-18T15:48:15.687Z,102871.03
2022-12-18T15:50:54.612Z,102873.97
2022-12-18T15:53:26.693Z,102879.44
2022-12-18T15:56:18.622Z,102877.88
2022-12-18T15:58:48.505Z,102890.25
2022-12-18T16:01:27.239Z,102888.56
2022-12-18T16:04:00.181Z,102891.31
2022-12-18T16:06:30.492Z,102897.59
2022-12-18T16:09:03.771Z,102891.75
2022-12-18T16:11:44.002Z,102898.94
2022-12-18T16:14:19.340Z,102890.19
2022-12-18T16:16:47.917Z,102898.06
2022-12-18T16:19:22.126Z,102898.16
2022-12-18T16:21:56.907Z,102895.75
2022-12-18T16:24:26.828Z,102896.56
2022-12-18T16:26:54.585Z,102902.78
2022-12-18T16:29:30.110Z,102888.16
2022-12-18T16:31:58.119Z,102907.34
2022-12-18T16:34:32.139Z,102914.41
2022-12-18T16:37:05.775Z,102916.19
2022-12-18T16:39:37.416Z,102912.00
2022-12-18T16:42:11.361Z,102922.75
2022-12-18T16:44:43.167Z,102921.94
2022-12-18T16:47:14.893Z,102907.97
2022-12-18T16:49:43.786Z,102902.25
2022-12-18T16:52:10.711Z,102912.63
2022-12-18T16:54:40.542Z,102922.38
2022-12-18T16:57:07.657Z,102917.22
2022-12-18T16:59:34.753Z,102920.69
2022-12-18T17:02:05.711Z,102906.75
2022-12-18T17:04:34.199Z,102919.91
2022-12-18T17:07:01.857Z,102915.53
2022-12-18T17:09:29.749Z,102918.22
2022-12-18T17:11:56.737Z,102921.84
2022-12-18T17:14:25.703Z,102932.44
2022-12-18T17:17:19.704Z,102934.22
2022-12-18T17:19:42.202Z,102949.00
2022-12-18T17:22:09.550Z,102957.81
2022-12-18T17:24:37.440Z,102962.22
2022-12-18T17:27:04.951Z,102963.06
2022-12-18T17:29:36.411Z,102966.59
2022-12-18T17:32:05.845Z,102966.66
2022-12-18T17:34:44.217Z,102976.25
2022-12-18T17:37:14.406Z,102973.75
2022-12-18T17:39:46.451Z,102977.13
2022-12-18T17:42:15.220Z,102973.69
2022-12-18T17:44:43.437Z,102974.69
2022-12-18T17:47:12.156Z,102970.44
2022-12-18T17:49:39.447Z,102982.72
2022-12-18T17:52:10.937Z,102973.28
2022-12-18T17:57:28.988Z,102974.19
2022-12-18T17:59:56.303Z,102979.41
2022-12-18T18:02:23.289Z,102972.50
2022-12-18T18:04:52.995Z,102980.31
2022-12-18T18:07:23.969Z,102985.50
2022-12-18T18:09:55.392Z,102989.00
2022-12-18T18:12:40.906Z,102988.16
2022-12-18T18:15:10.333Z,102989.00
2022-12-18T18:17:37.909Z,102981.97
2022-12-18T18:20:06.235Z,102980.19
2022-12-18T18:22:34.757Z,102980.19
2022-12-18T18:25:03.563Z,102985.47
2022-12-18T18:27:36.895Z,102986.41
2022-12-18T18:30:07.790Z,102969.94
2022-12-18T18:32:39.718Z,102994.22
2022-12-18T18:35:12.550Z,102989.75
2022-12-18T18:37:53.113Z,102990.59
2022-12-18T18:40:21.461Z,102989.84
2022-12-18T18:42:51.593Z,102981.16
2022-12-18T18:45:23.666Z,102995.22
2022-12-18T18:47:50.589Z,102997.00
2022-12-18T18:50:18.680Z,103000.47
2022-12-18T18:52:53.165Z,102980.53
2022-12-18T18:55:25.440Z,103001.28
2022-12-18T18:57:52.845Z,103002.03
2022-12-18T19:00:22.071Z,102990.63
2022-12-18T19:02:57.697Z,103003.75
2022-12-18T19:05:31.430Z,102996.78
2022-12-18T19:07:59.744Z,103002.91
2022-12-18T19:10:26.822Z,102984.59
2022-12-18T19:13:15.711Z,102997.81
2022-12-18T19:15:47.155Z,102980.56
2022-12-18T19:18:17.432Z,102989.28
2022-12-18T19:20:44.884Z,102983.25
2022-12-18T19:23:22.439Z,102987.69
2022-12-18T19:25:59.517Z,103007.63
2022-12-18T19:28:40.839Z,102996.28
2022-12-18T19:31:10.812Z,103004.94
2022-12-18T19:33:43.673Z,103004.94
2022-12-18T19:36:14.232Z,102992.72
2022-12-18T19:38:45.435Z,102995.22
2022-12-18T19:41:14.707Z,102984.88
2022-12-18T19:43:42.422Z,102993.50
2022-12-18T19:46:12.156Z,102996.03
2022-12-18T19:48:39.345Z,102988.25
2022-12-18T19:51:08.787Z,102985.63
2022-12-18T19:53:59.943Z,102973.56
2022-12-18T19:56:30.685Z,102988.19
2022-12-18T19:58:57.749Z,102989.09
2022-12-18T20:01:27.356Z,102983.84
2022-12-18T20:03:55.955Z,102985.63
2022-12-18T20:06:27.045Z,102985.63
2022-12-18T20:09:00.415Z,102983.03
2022-12-18T20:11:31.512Z,102989.16
2022-12-18T20:14:01.985Z,102976.22
2022-12-18T20:16:29.728Z,102985.72
2022-12-18T20:18:57.941Z,102968.34
2022-12-18T20:21:28.295Z,102986.59
2022-12-18T20:24:00.218Z,102986.63
2022-12-18T20:26:27.734Z,102988.41
2022-12-18T20:28:58.008Z,102994.41
2022-12-18T20:31:27.263Z,103001.41
2022-12-18T20:34:00.210Z,103000.53
2022-12-18T20:36:29.524Z,103000.59
2022-12-18T20:39:02.793Z,103007.59
2022-12-18T20:41:37.859Z,103000.72
2022-12-18T20:44:08.520Z,103012.84
2022-12-18T20:46:49.931Z,103020.72
2022-12-18T20:49:16.929Z,103021.59
2022-12-18T20:51:44.153Z,103029.44
2022-12-18T20:54:12.536Z,103028.69
2022-12-18T20:56:39.780Z,103008.78
2022-12-18T20:59:07.277Z,103047.00
2022-12-18T21:01:34.745Z,103042.78
2022-12-18T21:04:03.208Z,103047.13
2022-12-18T21:06:33.164Z,103037.47
2022-12-18T21:09:02.577Z,103028.75
2022-12-18T21:11:54.596Z,103032.25
2022-12-18T21:14:24.799Z,103027.09
2022-12-18T21:16:56.081Z,103028.84
2022-12-18T21:19:25.571Z,103038.44
2022-12-18T21:21:53.665Z,103036.72
2022-12-18T21:24:20.573Z,103023.63
2022-12-18T21:26:49.643Z,103032.31
2022-12-18T21:29:19.467Z,103042.88
2022-12-18T21:31:53.215Z,103041.16
2022-12-18T21:34:22.653Z,103046.41
2022-12-18T21:36:49.919Z,103030.00
2022-12-18T21:39:20.184Z,103055.13
2022-12-18T21:42:09.978Z,103052.53
2022-12-18T21:44:41.727Z,103066.50
2022-12-18T21:47:22.290Z,103059.53
2022-12-18T21:49:50.842Z,103071.81
2022-12-18T21:52:18.109Z,103062.25
2022-12-18T21:54:47.831Z,103063.97
2022-12-18T21:57:19.693Z,103063.94
2022-12-18T21:59:46.711Z,103065.72
2022-12-18T22:02:21.198Z,103063.09
2022-12-18T22:04:48.848Z,103070.94
2022-12-18T22:07:19.172Z,103065.75
2022-12-18T22:09:51.618Z,103057.03
2022-12-18T22:12:35.448Z,103050.97
2022-12-18T22:15:04.446Z,103041.50
2022-12-18T22:17:31.883Z,103056.28
2022-12-18T22:19:58.756Z,103064.13
2022-12-18T22:22:25.950Z,103055.50
2022-12-18T22:24:52.894Z,103060.81
2022-12-18T22:27:27.527Z,103055.66
2022-12-18T22:30:06.529Z,103060.03
2022-12-18T22:32:35.151Z,103044.41
2022-12-18T22:35:09.156Z,103049.63
2022-12-18T22:37:37.108Z,103060.91
2022-12-18T22:40:05.282Z,103059.97
2022-12-18T22:42:34.772Z,103054.69
2022-12-18T22:45:01.803Z,103045.13
2022-12-18T22:47:31.176Z,103048.63
2022-12-18T22:49:58.178Z,103040.84
2022-12-18T22:52:25.662Z,103036.47
2022-12-18T22:54:54.180Z,103026.94
2022-12-18T22:57:22.685Z,103028.69
2022-12-18T22:59:51.394Z,103023.50
2022-12-18T23:02:22.321Z,103024.41
2022-12-18T23:04:49.342Z,103035.69
2022-12-18T23:07:16.694Z,103030.47
2022-12-18T23:09:44.246Z,103033.13
2022-12-18T23:12:14.324Z,103022.69
2022-12-18T23:14:43.430Z,103028.81
2022-12-18T23:17:13.529Z,103035.81
2022-12-18T23:19:45.452Z,103032.31
2022-12-18T23:22:19.828Z,103032.31
2022-12-18T23:24:47.069Z,103034.09
2022-12-18T23:27:14.370Z,103021.06
2022-12-18T23:29:41.297Z,103035.00
2022-12-18T23:32:08.637Z,103043.72
2022-12-18T23:34:37.395Z,103040.28
2022-12-18T23:37:07.165Z,103033.31
2022-12-18T23:39:37.231Z,103019.34
2022-12-18T23:42:09.871Z,103029.75
2022-12-18T23:44:43.456Z,103022.78
2022-12-18T23:47:12.149Z,103012.34
2022-12-18T23:49:40.542Z,103024.44
2022-12-18T23:52:10.729Z,103037.47
2022-12-18T23:54:39.768Z,103035.66
2022-12-18T23:57:07.002Z,103041.72
2022-12-18T23:59:38.840Z,103049.50
